Time;durP1;ratioP1;P1;durP2;ratioP2;P2;SDS_P1;SDS_P2;PMS_P1;PMS_P2;Temp;Humidity;BMP_temperature;BMP_pressure;BME280_temperature;BME280_humidity;BME280_pressure;Samples;Min_cycle;Max_cycle;Signal;HPM_P1;HPM_P2
2022/11/11 00:01:14;;;;;;;;;19.25;18.00;;;;;;;;5113097;28;9035;-68
2022/11/11 00:03:40;;;;;;;;;24.75;18.25;;;;;;;;5113013;28;8773;-68
2022/11/11 00:06:08;;;;;;;;;24.25;19.25;;;;;;;;5113037;28;11476;-68
2022/11/11 00:08:33;;;;;;;;;18.00;17.25;;;;;;;;5112981;28;11466;-68
2022/11/11 00:10:59;;;;;;;;;17.75;16.25;;;;;;;;5112915;28;11481;-67
2022/11/11 00:13:25;;;;;;;;;14.00;13.25;;;;;;;;5112528;28;8805;-68
2022/11/11 00:15:50;;;;;;;;;19.00;17.50;;;;;;;;5111220;28;11496;-68
2022/11/11 00:26:28;;;;;;;;;18.00;14.75;;;;;;;;5112645;28;11670;-68
2022/11/11 00:28:53;;;;;;;;;18.50;17.00;;;;;;;;5112267;28;11536;-68
2022/11/11 00:31:18;;;;;;;;;19.00;17.50;;;;;;;;5111765;28;8797;-68
2022/11/11 00:33:43;;;;;;;;;19.00;18.00;;;;;;;;5112344;28;8800;-67
2022/11/11 00:36:09;;;;;;;;;17.50;15.50;;;;;;;;5112693;28;9578;-68
2022/11/11 00:38:51;;;;;;;;;14.00;12.50;;;;;;;;5112059;28;8797;-67
2022/11/11 00:41:18;;;;;;;;;14.00;13.00;;;;;;;;5112333;28;8927;-68
2022/11/11 00:43:44;;;;;;;;;23.75;19.25;;;;;;;;5112235;28;11603;-67
2022/11/11 00:51:38;;;;;;;;;19.50;16.00;;;;;;;;5112142;28;11612;-67
2022/11/11 00:54:04;;;;;;;;;14.00;14.00;;;;;;;;5112258;28;11492;-67
2022/11/11 00:56:29;;;;;;;;;13.75;12.00;;;;;;;;5111993;28;11615;-67
2022/11/11 00:58:55;;;;;;;;;16.50;14.50;;;;;;;;5111925;28;8793;-66
2022/11/11 01:01:20;;;;;;;;;15.75;15.75;;;;;;;;5111912;28;8908;-67
2022/11/11 01:03:45;;;;;;;;;18.25;16.50;;;;;;;;5111960;28;8815;-67
2022/11/11 01:06:12;;;;;;;;;12.50;12.50;;;;;;;;5111406;28;8900;-67
2022/11/11 01:08:37;;;;;;;;;17.50;17.50;;;;;;;;5111650;28;8789;-67
2022/11/11 01:11:03;;;;;;;;;13.25;13.25;;;;;;;;5111226;28;12185;-68
2022/11/11 01:13:29;;;;;;;;;13.00;12.00;;;;;;;;5111880;28;8777;-71
2022/11/11 01:16:00;;;;;;;;;13.00;13.00;;;;;;;;5110152;28;8908;-70
2022/11/11 01:18:25;;;;;;;;;16.50;12.50;;;;;;;;5111351;28;11553;-70
2022/11/11 01:20:57;;;;;;;;;14.00;14.00;;;;;;;;5109989;28;11589;-69
2022/11/11 01:23:22;;;;;;;;;15.00;13.50;;;;;;;;5111233;28;8766;-70
2022/11/11 01:25:48;;;;;;;;;14.50;12.75;;;;;;;;5111931;28;11464;-69
2022/11/11 01:28:13;;;;;;;;;13.00;13.00;;;;;;;;5111544;28;8793;-70
2022/11/11 01:30:39;;;;;;;;;12.00;12.00;;;;;;;;5111314;28;9633;-70
2022/11/11 01:33:04;;;;;;;;;13.50;12.00;;;;;;;;5111656;28;9522;-70
2022/11/11 01:35:29;;;;;;;;;15.25;12.25;;;;;;;;5111255;28;8789;-71
2022/11/11 01:37:55;;;;;;;;;14.00;12.25;;;;;;;;5110961;27;8864;-70
2022/11/11 01:40:21;;;;;;;;;17.50;12.25;;;;;;;;5110907;28;8820;-70
2022/11/11 01:43:09;;;;;;;;;12.25;12.00;;;;;;;;5111084;28;11461;-70
2022/11/11 01:45:56;;;;;;;;;13.00;13.00;;;;;;;;5111097;28;8857;-69
2022/11/11 01:51:26;;;;;;;;;11.50;11.50;;;;;;;;5111179;28;11474;-69
2022/11/11 01:53:55;;;;;;;;;12.00;11.00;;;;;;;;5111102;28;11539;-69
2022/11/11 01:56:21;;;;;;;;;11.75;11.75;;;;;;;;5110964;28;11435;-70
2022/11/11 01:58:46;;;;;;;;;12.25;10.50;;;;;;;;5108984;28;12356;-70
2022/11/11 02:01:12;;;;;;;;;11.00;9.50;;;;;;;;5110960;28;8774;-69
2022/11/11 02:03:39;;;;;;;;;16.00;12.25;;;;;;;;5111111;27;8766;-70
2022/11/11 02:06:05;;;;;;;;;10.25;10.00;;;;;;;;5111114;28;9551;-70
2022/11/11 02:08:32;;;;;;;;;13.75;12.25;;;;;;;;5110606;28;11448;-68
2022/11/11 02:11:13;;;;;;;;;12.00;12.00;;;;;;;;5110652;28;8785;-69
2022/11/11 02:16:23;;;;;;;;;11.50;9.25;;;;;;;;5110195;28;11463;-70
2022/11/11 02:18:49;;;;;;;;;12.00;10.50;;;;;;;;5110164;28;11590;-69
2022/11/11 02:21:19;;;;;;;;;13.25;8.50;;;;;;;;5109292;28;8789;-69
2022/11/11 02:23:47;;;;;;;;;11.50;11.00;;;;;;;;5109534;28;8882;-70
2022/11/11 02:26:15;;;;;;;;;9.50;9.00;;;;;;;;5110531;28;11470;-70
2022/11/11 02:28:40;;;;;;;;;9.25;8.25;;;;;;;;5110317;28;11474;-70
2022/11/11 02:31:06;;;;;;;;;13.25;12.00;;;;;;;;5110083;28;11456;-70
2022/11/11 02:33:31;;;;;;;;;11.25;11.00;;;;;;;;5110268;27;9554;-70
2022/11/11 02:35:58;;;;;;;;;14.75;10.00;;;;;;;;5109731;28;8826;-70
2022/11/11 02:38:26;;;;;;;;;12.75;11.25;;;;;;;;5110014;28;8789;-70
2022/11/11 02:43:35;;;;;;;;;12.75;12.25;;;;;;;;5110043;28;11547;-71
2022/11/11 02:46:02;;;;;;;;;10.00;6.25;;;;;;;;5109867;28;11465;-70
2022/11/11 02:48:27;;;;;;;;;10.00;8.25;;;;;;;;5109950;28;8801;-70
2022/11/11 02:50:53;;;;;;;;;11.25;11.25;;;;;;;;5109710;27;11420;-69
2022/11/11 02:53:18;;;;;;;;;11.00;10.50;;;;;;;;5109645;28;9563;-69
2022/11/11 02:55:43;;;;;;;;;14.25;11.00;;;;;;;;5109872;28;8861;-69
2022/11/11 02:58:09;;;;;;;;;12.00;8.75;;;;;;;;5109443;28;8840;-69
2022/11/11 03:00:34;;;;;;;;;12.00;10.75;;;;;;;;5109628;28;8774;-69
2022/11/11 03:03:00;;;;;;;;;12.00;12.00;;;;;;;;5109733;28;8844;-69
2022/11/11 03:05:25;;;;;;;;;8.00;8.00;;;;;;;;5109847;27;8801;-69
2022/11/11 03:07:50;;;;;;;;;13.75;10.50;;;;;;;;5109659;28;8782;-68
2022/11/11 03:10:16;;;;;;;;;11.25;10.75;;;;;;;;5109372;28;9487;-68
2022/11/11 03:12:41;;;;;;;;;11.75;9.50;;;;;;;;5109285;28;8801;-68
2022/11/11 03:15:07;;;;;;;;;8.25;7.25;;;;;;;;5109619;28;9520;-69
2022/11/11 03:17:38;;;;;;;;;8.00;8.00;;;;;;;;5109045;28;8801;-69
2022/11/11 03:23:07;;;;;;;;;11.00;11.00;;;;;;;;5109671;28;11522;-68
2022/11/11 03:25:39;;;;;;;;;9.25;8.25;;;;;;;;5109909;28;11420;-69
2022/11/11 03:28:04;;;;;;;;;9.25;8.00;;;;;;;;5108821;28;11528;-69
2022/11/11 03:30:29;;;;;;;;;10.50;8.50;;;;;;;;5107677;28;11589;-68
2022/11/11 03:32:55;;;;;;;;;7.25;7.25;;;;;;;;5096062;28;8781;-68
2022/11/11 03:35:20;;;;;;;;;9.50;7.00;;;;;;;;5088113;28;8800;-69
2022/11/11 03:40:34;;;;;;;;;8.00;6.00;;;;;;;;5087503;28;8824;-69
2022/11/11 03:42:59;;;;;;;;;6.00;6.00;;;;;;;;5087819;28;11485;-69
2022/11/11 03:45:24;;;;;;;;;9.50;9.50;;;;;;;;5087851;28;9809;-69
2022/11/11 03:47:50;;;;;;;;;10.00;10.00;;;;;;;;5087232;28;8812;-68
2022/11/11 07:12:07;;;;;;;;;18.75;14.25;;;;;;;;5073149;28;13536;-68
2022/11/11 07:14:33;;;;;;;;;19.25;17.00;;;;;;;;5048417;28;11534;-67
2022/11/11 07:16:58;;;;;;;;;9.75;9.75;;;;;;;;5064405;28;8837;-67
2022/11/11 07:19:23;;;;;;;;;15.00;14.75;;;;;;;;5052632;28;8918;-67
2022/11/11 07:21:49;;;;;;;;;14.25;12.50;;;;;;;;5044209;28;8953;-68
2022/11/11 07:24:14;;;;;;;;;19.00;16.50;;;;;;;;5044437;28;8910;-68
2022/11/11 07:26:39;;;;;;;;;18.75;15.50;;;;;;;;5045305;28;8796;-68
2022/11/11 07:29:04;;;;;;;;;11.75;11.75;;;;;;;;5045165;28;8902;-68
2022/11/11 07:31:30;;;;;;;;;12.50;11.25;;;;;;;;5045161;28;8832;-69
2022/11/11 07:33:55;;;;;;;;;12.00;12.00;;;;;;;;5040584;28;9003;-70
2022/11/11 07:36:21;;;;;;;;;13.67;10.33;;;;;;;;5044701;28;8935;-73
2022/11/11 07:38:46;;;;;;;;;8.00;6.67;;;;;;;;5044329;28;8884;-77
2022/11/11 07:41:11;;;;;;;;;8.67;8.00;;;;;;;;5045761;28;8823;-73
2022/11/11 07:43:36;;;;;;;;;6.00;6.00;;;;;;;;5045006;28;9012;-73
2022/11/11 07:46:02;;;;;;;;;4.00;4.00;;;;;;;;5062141;28;8809;-72
2022/11/11 07:48:27;;;;;;;;;3.67;3.67;;;;;;;;5065333;28;8825;-70
2022/11/11 07:50:55;;;;;;;;;3.67;3.67;;;;;;;;5081549;28;8944;-73
2022/11/11 07:53:21;;;;;;;;;2.25;2.25;;;;;;;;5047617;28;8819;-71
2022/11/11 07:55:46;;;;;;;;;4.00;4.00;;;;;;;;5032395;28;8834;-72
2022/11/11 07:58:12;;;;;;;;;4.67;4.67;;;;;;;;5025562;28;8807;-71
2022/11/11 08:00:37;;;;;;;;;5.00;5.00;;;;;;;;5039778;28;8839;-72
2022/11/11 08:03:03;;;;;;;;;4.75;3.00;;;;;;;;5044700;28;8808;-72
2022/11/11 08:05:28;;;;;;;;;3.00;3.00;;;;;;;;5045472;28;9650;-71
2022/11/11 08:07:53;;;;;;;;;3.00;3.00;;;;;;;;5044518;28;8784;-72
2022/11/11 08:10:18;;;;;;;;;2.25;2.25;;;;;;;;5044230;28;8925;-72
2022/11/11 08:15:28;;;;;;;;;4.50;3.00;;;;;;;;5057187;28;8820;-73
2022/11/11 08:17:53;;;;;;;;;3.00;2.75;;;;;;;;5049870;28;9845;-74
2022/11/11 08:20:19;;;;;;;;;3.75;2.75;;;;;;;;5045232;28;8889;-73
2022/11/11 08:22:44;;;;;;;;;2.00;2.00;;;;;;;;5035963;28;8795;-74
2022/11/11 08:25:12;;;;;;;;;2.00;2.00;;;;;;;;5031553;28;8832;-73
2022/11/11 08:27:38;;;;;;;;;2.00;2.00;;;;;;;;5029452;28;8832;-72
2022/11/11 08:30:04;;;;;;;;;2.50;2.50;;;;;;;;5030654;28;10188;-73
2022/11/11 08:32:29;;;;;;;;;1.75;1.75;;;;;;;;5029826;28;8796;-72
2022/11/11 08:34:55;;;;;;;;;2.50;2.50;;;;;;;;5029877;28;10364;-72
2022/11/11 08:37:20;;;;;;;;;3.00;2.50;;;;;;;;5021998;28;8822;-73
2022/11/11 08:39:45;;;;;;;;;2.25;2.25;;;;;;;;5011915;28;8829;-71
2022/11/11 08:42:11;;;;;;;;;1.75;1.75;;;;;;;;5010241;28;8802;-70
2022/11/11 08:44:36;;;;;;;;;5.50;2.25;;;;;;;;5033139;28;8809;-70
2022/11/11 08:47:01;;;;;;;;;3.00;2.50;;;;;;;;5050742;28;9503;-71
2022/11/11 09:23:37;;;;;;;;;2.25;2.25;;;;;;;;5103467;27;13439;-72
2022/11/11 09:26:05;;;;;;;;;7.50;6.00;;;;;;;;5106752;28;11065;-69
2022/11/11 09:28:32;;;;;;;;;9.50;5.25;;;;;;;;5106043;28;8812;-67
2022/11/11 09:30:59;;;;;;;;;4.50;4.50;;;;;;;;5106052;28;11453;-68
2022/11/11 09:33:24;;;;;;;;;4.50;4.50;;;;;;;;5104826;28;11867;-68
2022/11/11 09:35:49;;;;;;;;;5.00;3.00;;;;;;;;5105263;28;10996;-68
2022/11/11 09:38:14;;;;;;;;;6.00;5.50;;;;;;;;5105205;28;8804;-69
2022/11/11 09:40:58;;;;;;;;;1.00;1.00;;;;;;;;5106344;28;8795;-72
2022/11/11 09:43:46;;;;;;;;;2.75;1.00;;;;;;;;5106294;28;8839;-69
2022/11/11 09:46:20;;;;;;;;;1.00;1.00;;;;;;;;5105848;28;10755;-72
2022/11/11 09:48:51;;;;;;;;;2.00;2.00;;;;;;;;5102998;28;10732;-69
2022/11/11 09:51:22;;;;;;;;;1.25;1.25;;;;;;;;5105907;28;10749;-69
2022/11/11 09:53:50;;;;;;;;;1.75;1.75;;;;;;;;5106043;28;10625;-68
2022/11/11 09:56:20;;;;;;;;;2.00;2.00;;;;;;;;5105967;28;10626;-69
2022/11/11 09:59:15;;;;;;;;;2.00;2.00;;;;;;;;5103748;28;10606;-73
2022/11/11 10:01:52;;;;;;;;;1.75;1.00;;;;;;;;5100960;28;10672;-71
2022/11/11 10:04:36;;;;;;;;;2.50;1.00;;;;;;;;5104652;28;10464;-70
2022/11/11 10:07:08;;;;;;;;;3.00;1.00;;;;;;;;5104728;28;10672;-71
2022/11/11 10:09:40;;;;;;;;;8.00;6.00;;;;;;;;5103777;28;10628;-68
2022/11/11 10:12:12;;;;;;;;;5.50;5.50;;;;;;;;5106170;28;10822;-69
2022/11/11 10:14:39;;;;;;;;;0.00;0.00;;;;;;;;5090025;28;10757;-70
2022/11/11 10:17:19;;;;;;;;;4.00;1.00;;;;;;;;5105397;28;10516;-68
2022/11/11 10:19:50;;;;;;;;;1.00;1.00;;;;;;;;5099578;28;10405;-69
2022/11/11 10:22:18;;;;;;;;;1.00;1.00;;;;;;;;5114636;27;10555;-69
2022/11/11 10:24:48;;;;;;;;;2.00;2.00;;;;;;;;5126332;27;10466;-69
2022/11/11 10:27:21;;;;;;;;;1.00;1.00;;;;;;;;5123576;27;10613;-69
2022/11/11 10:29:47;;;;;;;;;0.75;0.00;;;;;;;;5105993;28;10531;-69
2022/11/11 10:32:18;;;;;;;;;1.00;0.75;;;;;;;;5105750;27;11094;-70
2022/11/11 10:34:43;;;;;;;;;3.00;3.00;;;;;;;;5113725;28;11077;-70
2022/11/11 10:37:18;;;;;;;;;2.00;2.00;;;;;;;;5111827;28;10462;-69
2022/11/11 10:40:02;;;;;;;;;2.00;2.00;;;;;;;;5112855;28;8873;-69
2022/11/11 10:42:27;;;;;;;;;1.00;1.00;;;;;;;;5112320;28;10563;-69
2022/11/11 10:44:58;;;;;;;;;1.75;1.00;;;;;;;;5112534;28;10515;-73
2022/11/11 10:47:32;;;;;;;;;1.50;1.00;;;;;;;;5110177;28;8817;-72
2022/11/11 10:50:12;;;;;;;;;1.00;1.00;;;;;;;;5112344;28;9559;-71
2022/11/11 10:52:42;;;;;;;;;1.50;1.50;;;;;;;;5112200;28;8828;-72
2022/11/11 10:55:24;;;;;;;;;1.00;1.00;;;;;;;;5111016;28;9578;-70
2022/11/11 10:57:56;;;;;;;;;1.00;1.00;;;;;;;;5110657;28;8805;-72
2022/11/11 11:00:21;;;;;;;;;1.00;1.00;;;;;;;;5112532;28;8773;-70
2022/11/11 11:03:07;;;;;;;;;2.00;0.00;;;;;;;;5112056;28;8856;-70
2022/11/11 11:05:47;;;;;;;;;1.00;0.00;;;;;;;;5104700;28;8824;-71
2022/11/11 11:08:19;;;;;;;;;0.00;0.00;;;;;;;;5110373;28;9555;-68
2022/11/11 11:10:51;;;;;;;;;0.20;0.20;;;;;;;;5111585;28;8874;-72
2022/11/11 11:13:39;;;;;;;;;0.20;0.00;;;;;;;;5111385;28;8821;-72
2022/11/11 11:16:10;;;;;;;;;0.00;0.00;;;;;;;;5099959;28;8825;-69
2022/11/11 11:18:35;;;;;;;;;0.00;0.00;;;;;;;;5102394;28;8818;-68
2022/11/11 11:21:05;;;;;;;;;1.25;1.25;;;;;;;;5098111;28;8815;-77
2022/11/11 11:23:43;;;;;;;;;1.00;1.00;;;;;;;;5101476;28;8806;-78
2022/11/11 11:26:09;;;;;;;;;1.00;1.00;;;;;;;;5099908;28;8838;-72
2022/11/11 11:28:50;;;;;;;;;0.00;0.00;;;;;;;;5100937;28;8800;-72
2022/11/11 11:31:16;;;;;;;;;0.00;0.00;;;;;;;;5100336;28;8803;-72
2022/11/11 11:33:59;;;;;;;;;1.00;1.00;;;;;;;;5100587;28;8794;-68
2022/11/11 11:36:24;;;;;;;;;0.00;0.00;;;;;;;;5098837;28;8800;-68
2022/11/11 11:38:50;;;;;;;;;1.00;1.00;;;;;;;;5099065;28;8817;-69
2022/11/11 11:41:35;;;;;;;;;0.00;0.00;;;;;;;;5100513;28;8816;-68
2022/11/11 11:44:00;;;;;;;;;0.00;0.00;;;;;;;;5101078;28;8787;-70
2022/11/11 11:46:28;;;;;;;;;0.00;0.00;;;;;;;;5098796;28;8804;-70
2022/11/11 11:48:57;;;;;;;;;0.00;0.00;;;;;;;;5099684;28;8906;-66
2022/11/11 11:51:42;;;;;;;;;1.00;1.00;;;;;;;;5096353;28;8827;-71
2022/11/11 11:54:42;;;;;;;;;0.25;0.25;;;;;;;;5099791;28;8824;-69
2022/11/11 11:57:23;;;;;;;;;0.00;0.00;;;;;;;;5036265;28;9576;-70
2022/11/11 11:59:55;;;;;;;;;0.50;0.50;;;;;;;;5094314;28;8812;-68
2022/11/11 12:02:52;;;;;;;;;1.00;1.00;;;;;;;;5097821;28;9552;-73
2022/11/11 12:05:24;;;;;;;;;1.00;1.00;;;;;;;;5057771;28;8921;-69
2022/11/11 12:08:08;;;;;;;;;1.00;1.00;;;;;;;;5055875;28;8893;-69
2022/11/11 12:10:36;;;;;;;;;0.00;0.00;;;;;;;;5056423;28;8910;-69
2022/11/11 12:13:15;;;;;;;;;0.50;0.25;;;;;;;;5057164;28;8909;-70
2022/11/11 12:15:57;;;;;;;;;1.00;1.00;;;;;;;;5042616;28;8836;-69
2022/11/11 12:18:34;;;;;;;;;3.33;2.00;;;;;;;;5054894;28;9052;-71
2022/11/11 12:21:09;;;;;;;;;8.33;4.00;;;;;;;;5056601;28;9198;-70
2022/11/11 12:23:43;;;;;;;;;2.00;2.00;;;;;;;;5059230;28;9479;-68
2022/11/11 12:26:30;;;;;;;;;3.50;3.00;;;;;;;;5057731;28;9288;-71
2022/11/11 12:29:05;;;;;;;;;3.33;2.00;;;;;;;;5056959;28;9437;-69
2022/11/11 12:31:50;;;;;;;;;2.67;1.67;;;;;;;;5058033;28;9334;-68
2022/11/11 12:34:27;;;;;;;;;0.75;0.75;;;;;;;;5024654;28;9290;-68
2022/11/11 12:36:57;;;;;;;;;1.00;0.00;;;;;;;;5054998;28;9361;-68
2022/11/11 12:39:28;;;;;;;;;1.25;1.25;;;;;;;;5055099;28;9223;-68
2022/11/11 12:42:09;;;;;;;;;1.00;1.00;;;;;;;;5093850;28;9549;-70
2022/11/11 12:44:42;;;;;;;;;1.50;1.00;;;;;;;;5099380;28;9592;-69
2022/11/11 12:47:07;;;;;;;;;0.00;0.00;;;;;;;;5097832;28;9373;-69
2022/11/11 12:49:32;;;;;;;;;1.00;1.00;;;;;;;;5098834;28;9441;-69
2022/11/11 12:52:10;;;;;;;;;1.00;1.00;;;;;;;;5097022;28;8828;-69
2022/11/11 12:54:53;;;;;;;;;0.25;0.25;;;;;;;;5099742;28;8813;-68
2022/11/11 12:57:22;;;;;;;;;0.75;0.75;;;;;;;;5100906;28;9455;-68
2022/11/11 12:59:57;;;;;;;;;1.25;0.50;;;;;;;;5104185;28;9700;-66
2022/11/11 13:02:32;;;;;;;;;0.75;0.75;;;;;;;;5099402;28;9742;-67
2022/11/11 13:05:06;;;;;;;;;0.75;0.25;;;;;;;;5097009;28;9531;-68
2022/11/11 13:07:40;;;;;;;;;1.00;1.00;;;;;;;;5097518;28;9631;-66
2022/11/11 13:10:21;;;;;;;;;1.00;1.00;;;;;;;;5095902;28;10436;-68
2022/11/11 13:13:05;;;;;;;;;2.00;2.00;;;;;;;;5097161;28;9794;-67
2022/11/11 13:15:30;;;;;;;;;0.00;0.00;;;;;;;;5095672;28;9925;-71
2022/11/11 13:17:58;;;;;;;;;1.00;1.00;;;;;;;;5098559;28;9883;-68
2022/11/11 13:20:42;;;;;;;;;2.25;1.00;;;;;;;;5097915;28;8913;-67
2022/11/11 13:23:10;;;;;;;;;1.00;1.00;;;;;;;;5097287;28;9588;-67
2022/11/11 13:25:38;;;;;;;;;1.00;1.00;;;;;;;;5097208;28;9482;-68
2022/11/11 13:28:13;;;;;;;;;2.00;1.00;;;;;;;;5096049;28;9599;-67
2022/11/11 13:30:47;;;;;;;;;1.00;1.00;;;;;;;;5101416;28;9650;-67
2022/11/11 13:33:15;;;;;;;;;0.75;0.75;;;;;;;;5099321;28;9894;-68
2022/11/11 13:35:47;;;;;;;;;2.00;2.00;;;;;;;;5097876;28;9862;-67
2022/11/11 13:38:27;;;;;;;;;1.25;1.00;;;;;;;;5097122;28;9606;-67
2022/11/11 13:40:54;;;;;;;;;1.50;1.00;;;;;;;;5096614;28;9575;-68
2022/11/11 13:43:31;;;;;;;;;1.00;1.00;;;;;;;;5099016;28;9688;-69
2022/11/11 13:45:58;;;;;;;;;1.75;1.75;;;;;;;;5100354;28;9713;-68
2022/11/11 13:48:26;;;;;;;;;1.00;1.00;;;;;;;;5095358;28;9692;-68
2022/11/11 13:50:51;;;;;;;;;1.00;1.00;;;;;;;;5093586;28;9906;-70
2022/11/11 13:53:43;;;;;;;;;3.00;1.50;;;;;;;;5096308;28;9896;-69
2022/11/11 13:56:10;;;;;;;;;2.00;2.00;;;;;;;;5085287;28;8820;-69
2022/11/11 13:58:37;;;;;;;;;2.50;2.00;;;;;;;;5088676;28;9948;-68
2022/11/11 14:01:04;;;;;;;;;3.25;2.00;;;;;;;;5094273;28;9920;-69
2022/11/11 14:03:32;;;;;;;;;4.00;3.50;;;;;;;;5107469;28;10173;-72
2022/11/11 14:06:12;;;;;;;;;7.50;7.50;;;;;;;;5107917;28;9922;-71
2022/11/11 14:08:56;;;;;;;;;3.00;3.00;;;;;;;;5108511;28;10358;-69
2022/11/11 14:11:28;;;;;;;;;3.00;2.00;;;;;;;;5112592;28;10169;-69
2022/11/11 14:13:54;;;;;;;;;4.00;4.00;;;;;;;;5111856;28;9858;-70
2022/11/11 14:16:31;;;;;;;;;13.00;11.50;;;;;;;;5111360;28;10079;-70
2022/11/11 14:18:57;;;;;;;;;7.50;7.00;;;;;;;;5112133;28;10442;-70
2022/11/11 14:21:40;;;;;;;;;4.75;3.50;;;;;;;;5112180;28;10017;-70
2022/11/11 14:24:06;;;;;;;;;3.00;2.25;;;;;;;;5112097;28;8792;-70
2022/11/11 14:26:31;;;;;;;;;13.75;12.25;;;;;;;;5112168;28;9886;-71
2022/11/11 14:28:58;;;;;;;;;3.50;3.50;;;;;;;;5112251;28;8860;-72
2022/11/11 14:31:31;;;;;;;;;2.00;2.00;;;;;;;;5110696;28;8920;-72
2022/11/11 14:34:05;;;;;;;;;4.50;2.75;;;;;;;;5111643;28;10075;-71
2022/11/11 14:36:33;;;;;;;;;4.00;3.00;;;;;;;;5111359;28;10057;-71
2022/11/11 14:39:03;;;;;;;;;3.75;3.00;;;;;;;;5111547;28;9956;-71
2022/11/11 14:41:40;;;;;;;;;2.75;2.75;;;;;;;;5111861;28;10074;-70
2022/11/11 14:44:24;;;;;;;;;10.00;10.00;;;;;;;;5111645;28;9859;-70
2022/11/11 14:47:05;;;;;;;;;6.00;4.00;;;;;;;;5109983;28;10535;-71
2022/11/11 14:49:52;;;;;;;;;1.00;1.00;;;;;;;;5111409;28;10026;-71
2022/11/11 14:52:20;;;;;;;;;2.00;2.00;;;;;;;;5111460;28;9958;-71
2022/11/11 14:54:46;;;;;;;;;2.25;2.00;;;;;;;;5110401;28;10015;-69
2022/11/11 14:57:17;;;;;;;;;2.00;2.00;;;;;;;;5111313;28;9866;-71
2022/11/11 14:59:43;;;;;;;;;3.00;2.00;;;;;;;;5111283;28;8793;-70
2022/11/11 15:02:17;;;;;;;;;3.00;3.00;;;;;;;;5111219;28;10060;-71
2022/11/11 15:04:42;;;;;;;;;4.50;2.50;;;;;;;;5111389;28;8797;-70
2022/11/11 15:07:18;;;;;;;;;2.75;2.75;;;;;;;;5111177;28;10062;-70
2022/11/11 15:10:04;;;;;;;;;1.50;0.75;;;;;;;;5111384;28;8778;-70
2022/11/11 15:12:48;;;;;;;;;4.00;2.25;;;;;;;;5103396;28;10201;-70
2022/11/11 15:15:20;;;;;;;;;3.25;3.25;;;;;;;;5111082;28;10311;-68
2022/11/11 15:17:48;;;;;;;;;2.00;2.00;;;;;;;;5111085;28;10319;-74
2022/11/11 15:20:25;;;;;;;;;4.00;3.50;;;;;;;;5108814;28;10938;-72
2022/11/11 15:22:56;;;;;;;;;3.00;3.00;;;;;;;;5098427;28;10303;-72
2022/11/11 15:25:27;;;;;;;;;3.75;3.75;;;;;;;;5109253;28;10957;-72
2022/11/11 15:28:07;;;;;;;;;3.00;3.00;;;;;;;;5110809;28;10551;-71
2022/11/11 15:31:02;;;;;;;;;6.00;4.00;;;;;;;;5108097;28;10342;-71
2022/11/11 15:33:46;;;;;;;;;4.00;4.00;;;;;;;;5069260;28;10355;-71
2022/11/11 15:36:11;;;;;;;;;3.75;3.75;;;;;;;;5110481;28;10335;-72
2022/11/11 15:38:37;;;;;;;;;4.00;3.00;;;;;;;;5110707;28;10401;-72
2022/11/11 15:41:02;;;;;;;;;3.00;3.00;;;;;;;;5108778;28;8894;-72
2022/11/11 15:43:30;;;;;;;;;4.00;4.00;;;;;;;;5109013;28;8975;-71
2022/11/11 15:45:58;;;;;;;;;4.00;3.00;;;;;;;;5111240;28;8904;-71
2022/11/11 15:48:26;;;;;;;;;6.25;4.50;;;;;;;;5109703;28;11198;-72
2022/11/11 15:50:51;;;;;;;;;6.00;3.75;;;;;;;;5110961;28;10681;-72
2022/11/11 15:53:21;;;;;;;;;4.00;4.00;;;;;;;;5109869;28;10475;-73
2022/11/11 15:55:56;;;;;;;;;6.25;3.75;;;;;;;;5110906;28;8805;-72
2022/11/11 15:58:31;;;;;;;;;5.75;4.00;;;;;;;;5110902;28;10625;-75
2022/11/11 16:00:58;;;;;;;;;13.50;8.00;;;;;;;;5109610;28;10642;-72
2022/11/11 16:03:38;;;;;;;;;8.00;7.00;;;;;;;;5110411;28;10839;-74
2022/11/11 16:06:06;;;;;;;;;8.00;7.00;;;;;;;;5109723;28;10600;-73
2022/11/11 16:08:32;;;;;;;;;5.00;5.00;;;;;;;;5110748;28;10754;-69
2022/11/11 16:10:59;;;;;;;;;8.00;8.00;;;;;;;;5058056;27;10851;-68
2022/11/11 16:13:30;;;;;;;;;5.00;5.00;;;;;;;;5089862;28;8823;-70
2022/11/11 16:16:02;;;;;;;;;7.50;6.25;;;;;;;;5088778;28;10525;-67
2022/11/11 16:18:32;;;;;;;;;5.50;5.50;;;;;;;;5086358;28;10533;-68
2022/11/11 16:21:02;;;;;;;;;6.00;6.00;;;;;;;;5086990;28;10545;-69
2022/11/11 16:23:27;;;;;;;;;6.00;6.00;;;;;;;;5088081;28;10627;-71
2022/11/11 16:25:53;;;;;;;;;6.00;6.00;;;;;;;;5088550;28;10642;-71
2022/11/11 16:28:19;;;;;;;;;9.25;6.00;;;;;;;;5086909;28;8817;-71
2022/11/11 16:30:44;;;;;;;;;5.25;4.50;;;;;;;;5088325;28;10838;-71
2022/11/11 16:33:36;;;;;;;;;8.00;6.00;;;;;;;;5082383;28;8843;-71
2022/11/11 16:36:08;;;;;;;;;9.25;9.25;;;;;;;;5085114;28;8956;-71
2022/11/11 16:38:34;;;;;;;;;7.75;7.00;;;;;;;;5086652;28;10819;-71
2022/11/11 16:41:00;;;;;;;;;7.50;7.50;;;;;;;;5088985;28;10789;-71
2022/11/11 16:43:30;;;;;;;;;6.75;6.75;;;;;;;;5080007;28;8814;-71
2022/11/11 16:45:58;;;;;;;;;9.50;7.00;;;;;;;;5081794;28;8804;-71
2022/11/11 16:48:38;;;;;;;;;7.00;7.00;;;;;;;;5080486;28;11576;-71
2022/11/11 16:51:16;;;;;;;;;9.25;7.75;;;;;;;;5080583;28;10620;-71
2022/11/11 16:53:44;;;;;;;;;7.00;6.00;;;;;;;;5080182;28;11086;-71
2022/11/11 16:56:15;;;;;;;;;7.25;7.00;;;;;;;;5078668;28;11611;-71
2022/11/11 16:58:40;;;;;;;;;10.75;8.00;;;;;;;;5084321;28;10715;-71
2022/11/11 17:01:07;;;;;;;;;8.25;7.50;;;;;;;;5089467;28;11022;-71
2022/11/11 17:03:33;;;;;;;;;9.00;8.00;;;;;;;;5081219;28;8797;-71
2022/11/11 17:06:07;;;;;;;;;11.00;9.25;;;;;;;;5088170;28;11050;-71
2022/11/11 17:08:36;;;;;;;;;8.50;8.50;;;;;;;;5089859;28;10843;-70
2022/11/11 17:11:05;;;;;;;;;7.00;6.00;;;;;;;;5089465;28;10941;-72
2022/11/11 17:13:31;;;;;;;;;9.75;7.25;;;;;;;;5089104;28;10926;-71
2022/11/11 17:15:58;;;;;;;;;12.25;10.25;;;;;;;;5089756;28;10938;-72
2022/11/11 17:18:24;;;;;;;;;10.25;7.50;;;;;;;;5089741;28;10999;-70
2022/11/11 17:20:52;;;;;;;;;10.00;10.00;;;;;;;;5089472;28;10956;-71
2022/11/11 17:23:18;;;;;;;;;12.00;8.00;;;;;;;;5089181;28;11075;-70
2022/11/11 17:25:43;;;;;;;;;21.25;18.25;;;;;;;;5073199;22;11143;-73
2022/11/11 17:28:09;;;;;;;;;12.50;11.75;;;;;;;;5009088;28;8817;-73
2022/11/11 17:30:35;;;;;;;;;8.00;8.00;;;;;;;;5009212;28;8858;-72
2022/11/11 17:33:00;;;;;;;;;12.75;10.00;;;;;;;;5008826;28;8825;-73
2022/11/11 17:35:25;;;;;;;;;10.25;10.25;;;;;;;;5009198;28;8805;-75
2022/11/11 17:37:50;;;;;;;;;12.25;10.00;;;;;;;;5018142;28;8889;-72
2022/11/11 17:40:16;;;;;;;;;8.00;8.00;;;;;;;;5028794;28;8795;-74
2022/11/11 17:42:41;;;;;;;;;12.50;9.00;;;;;;;;5009882;28;8838;-73
2022/11/11 17:45:07;;;;;;;;;13.00;10.00;;;;;;;;5032103;28;8904;-74
2022/11/11 17:47:32;;;;;;;;;11.25;8.00;;;;;;;;5021964;28;9611;-73
2022/11/11 17:49:57;;;;;;;;;11.50;10.50;;;;;;;;4995012;28;8988;-71
2022/11/11 17:52:23;;;;;;;;;12.00;12.00;;;;;;;;5011346;28;8947;-72
2022/11/11 17:54:48;;;;;;;;;11.75;10.00;;;;;;;;5011977;28;8801;-74
2022/11/11 17:57:14;;;;;;;;;15.25;11.50;;;;;;;;5011540;28;8793;-72
2022/11/11 17:59:39;;;;;;;;;12.25;10.75;;;;;;;;5012969;28;8809;-72
2022/11/11 18:02:04;;;;;;;;;9.00;9.00;;;;;;;;5012599;28;8926;-72
2022/11/11 18:04:30;;;;;;;;;10.00;8.00;;;;;;;;4994411;28;8821;-72
2022/11/11 18:06:55;;;;;;;;;10.00;8.00;;;;;;;;5010784;28;8809;-72
2022/11/11 18:09:20;;;;;;;;;8.00;7.00;;;;;;;;5012294;28;8813;-71
2022/11/11 18:11:45;;;;;;;;;8.50;7.25;;;;;;;;5001787;28;8888;-72
2022/11/11 18:14:11;;;;;;;;;9.50;7.75;;;;;;;;5021867;28;8798;-74
2022/11/11 18:16:37;;;;;;;;;6.75;6.00;;;;;;;;5019001;28;8856;-74
2022/11/11 18:19:02;;;;;;;;;10.00;7.75;;;;;;;;5021432;28;8933;-72
2022/11/11 18:21:28;;;;;;;;;6.75;6.00;;;;;;;;5021749;28;9663;-71
2022/11/11 18:23:54;;;;;;;;;8.00;7.00;;;;;;;;5019604;28;8944;-74
2022/11/11 18:26:20;;;;;;;;;5.25;5.25;;;;;;;;5021169;28;8819;-75
2022/11/11 18:28:45;;;;;;;;;5.25;5.00;;;;;;;;5018470;28;8941;-76
2022/11/11 18:31:11;;;;;;;;;6.50;6.00;;;;;;;;5020384;28;8839;-76
2022/11/11 18:33:43;;;;;;;;;5.50;5.50;;;;;;;;5020699;28;8826;-71
2022/11/11 18:36:09;;;;;;;;;7.75;6.50;;;;;;;;5021227;28;11118;-73
2022/11/11 18:38:35;;;;;;;;;5.75;5.75;;;;;;;;5019819;28;11105;-73
2022/11/11 18:41:03;;;;;;;;;7.00;5.75;;;;;;;;5020298;28;10802;-71
2022/11/11 18:43:31;;;;;;;;;7.00;5.00;;;;;;;;5000775;28;8853;-71
2022/11/11 18:46:01;;;;;;;;;11.00;7.50;;;;;;;;5018192;28;10871;-72
2022/11/11 18:48:26;;;;;;;;;10.50;10.00;;;;;;;;5018631;28;11177;-72
2022/11/11 18:50:52;;;;;;;;;5.75;5.00;;;;;;;;5020400;28;11276;-72
2022/11/11 18:53:17;;;;;;;;;7.00;5.75;;;;;;;;5017361;28;8846;-72
2022/11/11 18:55:43;;;;;;;;;6.00;4.00;;;;;;;;5019808;28;11115;-73
2022/11/11 18:58:08;;;;;;;;;3.00;3.00;;;;;;;;5018686;28;8848;-74
2022/11/11 19:00:33;;;;;;;;;2.00;2.00;;;;;;;;5017657;28;8797;-73
2022/11/11 19:02:58;;;;;;;;;6.00;3.00;;;;;;;;5019987;28;8866;-75
2022/11/11 19:05:24;;;;;;;;;4.50;4.50;;;;;;;;5019541;28;9023;-77
2022/11/11 19:07:49;;;;;;;;;6.00;5.00;;;;;;;;5024663;28;8794;-75
2022/11/11 19:10:14;;;;;;;;;2.25;2.25;;;;;;;;5028538;28;8876;-76
2022/11/11 19:12:39;;;;;;;;;3.00;3.00;;;;;;;;5030286;28;8838;-76
2022/11/11 19:15:05;;;;;;;;;3.00;3.00;;;;;;;;5031238;28;8799;-77
2022/11/11 19:17:30;;;;;;;;;4.50;2.00;;;;;;;;5031277;28;8795;-77
2022/11/11 19:19:55;;;;;;;;;2.00;2.00;;;;;;;;5013376;28;8824;-77
2022/11/11 19:22:21;;;;;;;;;2.25;2.25;;;;;;;;5031039;28;8783;-77
2022/11/11 19:24:46;;;;;;;;;3.00;2.00;;;;;;;;5013649;28;8868;-76